メインページ
METAR-TAF:

METAR-TAF

空港 :

レイキャヴィーク空港

レイキャヴィーク, アイスランド

緯度: 64-08N, 経度: 021-54W, 海抜: 54m

現時点の気象観測

当レポートは1時間6分前の03:00(UTC)に作成
東/南東の風 5kt
気温 -7°C
湿度 67%
気圧 990 hPa
視程10km以上
1,500メートル以下は雲なし、積乱雲なし

METAR: BIRK 130300Z 11005KT CAVOK M07/M12 Q0990

時間: 04:06 (04:06 UTC)

予報

当レポートは3時間6分前の01:00(UTC)に作成
予報は13日の 03時(UTC)から 14日の 03時(UTC)まで有効
の風 8kt
視程10km以上
1,500メートル以下は雲なし、積乱雲なし

TAF: BIRK 130100Z 1303/1403 09008KT CAVOK TXM07/1303Z TNM08/1306Z

4,000以上の空港の気象観測と天気予報(METAR報とTAF報)

利用可能な観測所は地図上に黄色い丸と赤い丸で示す。

丸の上にカーソルを重ねると観測所名を参照できる。

次にクリックすると気象観測と天気予報を参照できる。

マップの切り替え:黒色「×」印の緑ボタンをクリックして拡大、「-」印の緑ボタンをクリックして縮小、緑色の三角印をクリックして隣りの地図に切り替え


METAR-TAF: